PWSweather.com
Personal Weather Stations
Station Observations
UPSTATEWEATHER
Silver Leaf, Greer, SC 29650

Silver LeafGreer, SC 29650

Lat: 34.8955792, Lon: -82.2868211

Elevation: 875

Station Type: Davis Vantage Vue

https://www.upstateweather.com

High Low Average
Temperature 94.2°F34.6°C 74.4°F23.6°C 82.5°F28.1°C
Dew Point 79.0°F26.1°C 72.7°F22.6°C 75.2°F24.0°C
Winds 1.2 mph 1.9 kmh Calm Calm Calm Calm
Wind Gusts 2.3 mph3.7 kmh -- --
Humidity 96% 56% 80%
Pressure 29.93 in1013.5 mb 29.80 in1009.1 mb -
Precipitation 0.45 in11.4 mm - -
Hour Temp Dew Point Humidity Winds Wind Gusts Pressure Precip Precip Rate Daily Precip Total
12:00 AM 75.9°F24.4°C 73.4°F23.0°C 92% Calm Calm -- 29.93 in1013.5 mb - 0.00 in0.0 mm 0.00 in0.0 mm
12:15 AM 75.9°F24.4°C 73.4°F23.0°C 92% Calm Calm -- 29.92 in1013.2 mb - 0.00 in0.0 mm 0.00 in0.0 mm
12:30 AM 75.8°F24.3°C 73.6°F23.1°C 93% Calm Calm -- 29.92 in1013.2 mb - 0.00 in0.0 mm 0.00 in0.0 mm
12:45 AM 75.7°F24.3°C 73.5°F23.1°C 93% Calm Calm -- 29.91 in1012.9 mb - 0.00 in0.0 mm 0.00 in0.0 mm
01:00 AM 75.5°F24.2°C 73.7°F23.2°C 94% Calm Calm -- 29.91 in1012.9 mb - 0.00 in0.0 mm 0.00 in0.0 mm
01:15 AM 75.4°F24.1°C 73.6°F23.1°C 94% Calm Calm -- 29.91 in1012.9 mb - 0.00 in0.0 mm 0.00 in0.0 mm
01:30 AM 75.2°F24.0°C 73.4°F23.0°C 94% Calm Calm -- 29.91 in1012.9 mb - 0.00 in0.0 mm 0.00 in0.0 mm
01:45 AM 75.0°F23.9°C 73.2°F22.9°C 94% Calm Calm -- 29.90 in1012.5 mb - 0.00 in0.0 mm 0.00 in0.0 mm
02:00 AM 74.9°F23.8°C 73.1°F22.8°C 94% Calm Calm -- 29.91 in1012.9 mb - 0.00 in0.0 mm 0.00 in0.0 mm
02:15 AM 74.8°F23.8°C 73.3°F22.9°C 95% Calm Calm -- 29.91 in1012.9 mb - 0.00 in0.0 mm 0.00 in0.0 mm
02:30 AM 74.8°F23.8°C 73.3°F22.9°C 95% Calm Calm -- 29.91 in1012.9 mb - 0.00 in0.0 mm 0.00 in0.0 mm
02:45 AM 74.7°F23.7°C 73.2°F22.9°C 95% Calm Calm -- 29.91 in1012.9 mb - 0.00 in0.0 mm 0.00 in0.0 mm
03:00 AM 74.5°F23.6°C 73.0°F22.8°C 95% Calm Calm -- 29.91 in1012.9 mb - 0.00 in0.0 mm 0.00 in0.0 mm
03:15 AM 74.4°F23.6°C 72.9°F22.7°C 95% Calm Calm -- 29.91 in1012.9 mb - 0.00 in0.0 mm 0.00 in0.0 mm
03:30 AM 74.4°F23.6°C 73.1°F22.8°C 96% Calm Calm -- 29.90 in1012.5 mb - 0.00 in0.0 mm 0.00 in0.0 mm
03:45 AM 74.4°F23.6°C 73.2°F22.9°C 96% Calm Calm -- 29.90 in1012.5 mb - 0.00 in0.0 mm 0.00 in0.0 mm
04:00 AM 74.4°F23.6°C 73.2°F22.9°C 96% Calm Calm -- 29.89 in1012.2 mb - 0.00 in0.0 mm 0.00 in0.0 mm
04:15 AM 74.6°F23.7°C 73.4°F23.0°C 96% Calm Calm -- 29.89 in1012.2 mb - 0.00 in0.0 mm 0.00 in0.0 mm
04:30 AM 74.7°F23.7°C 73.2°F22.9°C 95% Calm Calm -- 29.89 in1012.2 mb - 0.00 in0.0 mm 0.00 in0.0 mm
04:45 AM 74.8°F23.8°C 73.3°F22.9°C 95% Calm Calm -- 29.89 in1012.2 mb - 0.00 in0.0 mm 0.00 in0.0 mm
05:00 AM 74.8°F23.8°C 73.3°F22.9°C 95% Calm Calm -- 29.89 in1012.2 mb - 0.00 in0.0 mm 0.00 in0.0 mm
05:15 AM 74.7°F23.7°C 73.2°F22.9°C 95% Calm Calm -- 29.90 in1012.5 mb - 0.00 in0.0 mm 0.00 in0.0 mm
05:30 AM 74.7°F23.7°C 73.2°F22.9°C 95% Calm Calm -- 29.90 in1012.5 mb - 0.00 in0.0 mm 0.00 in0.0 mm
05:45 AM 74.8°F23.8°C 73.3°F22.9°C 95% Calm Calm -- 29.91 in1012.9 mb - 0.00 in0.0 mm 0.00 in0.0 mm
06:00 AM 74.9°F23.8°C 73.4°F23.0°C 95% Calm Calm -- 29.90 in1012.5 mb - 0.00 in0.0 mm 0.00 in0.0 mm
06:15 AM 75.1°F23.9°C 73.6°F23.1°C 95% Calm Calm -- 29.90 in1012.5 mb - 0.00 in0.0 mm 0.00 in0.0 mm
06:30 AM 75.7°F24.3°C 74.2°F23.4°C 95% Calm Calm -- 29.90 in1012.5 mb - 0.00 in0.0 mm 0.00 in0.0 mm
06:45 AM 75.8°F24.3°C 73.9°F23.3°C 94% Calm Calm -- 29.90 in1012.5 mb - 0.00 in0.0 mm 0.00 in0.0 mm
07:00 AM 76.1°F24.5°C 74.2°F23.4°C 94% Calm Calm -- 29.90 in1012.5 mb - 0.00 in0.0 mm 0.00 in0.0 mm
07:15 AM 76.6°F24.8°C 74.7°F23.7°C 94% Calm Calm -- 29.90 in1012.5 mb - 0.00 in0.0 mm 0.00 in0.0 mm
07:30 AM 77.5°F25.3°C 75.6°F24.2°C 94% Calm Calm -- 29.90 in1012.5 mb - 0.00 in0.0 mm 0.00 in0.0 mm
07:45 AM 78.9°F26.1°C 76.4°F24.7°C 92% Calm Calm -- 29.91 in1012.9 mb - 0.00 in0.0 mm 0.00 in0.0 mm
08:00 AM 80.0°F26.7°C 77.1°F25.1°C 91% Calm Calm -- 29.90 in1012.5 mb - 0.00 in0.0 mm 0.00 in0.0 mm
08:15 AM 81.2°F27.3°C 77.3°F25.2°C 88% Calm Calm -- 29.90 in1012.5 mb - 0.00 in0.0 mm 0.00 in0.0 mm
08:30 AM 82.3°F27.9°C 77.7°F25.4°C 86% Calm Calm -- 29.90 in1012.5 mb - 0.00 in0.0 mm 0.00 in0.0 mm
08:45 AM 83.2°F28.4°C 77.5°F25.3°C 83% Calm Calm -- 29.90 in1012.5 mb - 0.00 in0.0 mm 0.00 in0.0 mm
09:00 AM 84.2°F29.0°C 78.1°F25.6°C 82% Calm Calm 1.2 mph1.9 kmh 29.90 in1012.5 mb - 0.00 in0.0 mm 0.00 in0.0 mm
09:15 AM 85.3°F29.6°C 78.8°F26.0°C 81% Calm Calm -- 29.90 in1012.5 mb - 0.00 in0.0 mm 0.00 in0.0 mm
09:30 AM 86.2°F30.1°C 78.9°F26.1°C 79% Calm Calm 1.2 mph1.9 kmh 29.90 in1012.5 mb - 0.00 in0.0 mm 0.00 in0.0 mm
09:45 AM 86.9°F30.5°C 78.4°F25.8°C 76% Calm Calm -- 29.90 in1012.5 mb - 0.00 in0.0 mm 0.00 in0.0 mm
10:00 AM 87.5°F30.8°C 78.6°F25.9°C 75% Calm Calm 1.2 mph1.9 kmh 29.90 in1012.5 mb - 0.00 in0.0 mm 0.00 in0.0 mm
10:15 AM 88.1°F31.2°C 78.8°F26.0°C 74% Calm Calm -- 29.90 in1012.5 mb - 0.00 in0.0 mm 0.00 in0.0 mm
10:30 AM 89.2°F31.8°C 79.0°F26.1°C 72% 1.2 mph 1.9 kmh 1.2 mph1.9 kmh 29.89 in1012.2 mb - 0.00 in0.0 mm 0.00 in0.0 mm
10:45 AM 89.7°F32.1°C 79.0°F26.1°C 71% Calm Calm 1.2 mph1.9 kmh 29.89 in1012.2 mb - 0.00 in0.0 mm 0.00 in0.0 mm
11:00 AM 90.1°F32.3°C 78.5°F25.8°C 69% Calm Calm 2.3 mph3.7 kmh 29.89 in1012.2 mb - 0.00 in0.0 mm 0.00 in0.0 mm
11:15 AM 90.5°F32.5°C 78.5°F25.8°C 68% Calm Calm 1.2 mph1.9 kmh 29.88 in1011.9 mb - 0.00 in0.0 mm 0.00 in0.0 mm
11:30 AM 90.7°F32.6°C 78.2°F25.7°C 67% Calm Calm 1.2 mph1.9 kmh 29.88 in1011.9 mb - 0.00 in0.0 mm 0.00 in0.0 mm
11:45 AM 91.1°F32.8°C 77.7°F25.4°C 65% 1.2 mph 1.9 kmh 2.3 mph3.7 kmh 29.87 in1011.5 mb - 0.00 in0.0 mm 0.00 in0.0 mm
12:00 PM 91.8°F33.2°C 77.9°F25.5°C 64% Calm Calm 1.2 mph1.9 kmh 29.87 in1011.5 mb - 0.00 in0.0 mm 0.00 in0.0 mm
12:15 PM 92.3°F33.5°C 77.4°F25.2°C 62% Calm Calm -- 29.87 in1011.5 mb - 0.00 in0.0 mm 0.00 in0.0 mm
12:30 PM 92.6°F33.7°C 78.2°F25.7°C 63% Calm Calm -- 29.86 in1011.2 mb - 0.00 in0.0 mm 0.00 in0.0 mm
12:45 PM 92.9°F33.8°C 78.4°F25.8°C 63% Calm Calm -- 29.86 in1011.2 mb - 0.00 in0.0 mm 0.00 in0.0 mm
01:00 PM 92.8°F33.8°C 76.9°F24.9°C 60% Calm Calm -- 29.85 in1010.8 mb - 0.00 in0.0 mm 0.00 in0.0 mm
01:15 PM 93.1°F33.9°C 77.2°F25.1°C 60% Calm Calm -- 29.85 in1010.8 mb - 0.00 in0.0 mm 0.00 in0.0 mm
01:30 PM 93.6°F34.2°C 76.6°F24.8°C 58% Calm Calm 2.3 mph3.7 kmh 29.84 in1010.5 mb - 0.00 in0.0 mm 0.00 in0.0 mm
01:45 PM 94.2°F34.6°C 76.1°F24.5°C 56% Calm Calm -- 29.84 in1010.5 mb - 0.00 in0.0 mm 0.00 in0.0 mm
02:00 PM 93.7°F34.3°C 77.2°F25.1°C 59% Calm Calm -- 29.83 in1010.2 mb - 0.00 in0.0 mm 0.00 in0.0 mm
02:15 PM 93.5°F34.2°C 75.4°F24.1°C 56% 1.2 mph 1.9 kmh -- 29.82 in1009.8 mb - 0.00 in0.0 mm 0.00 in0.0 mm
02:30 PM 93.9°F34.4°C 76.4°F24.7°C 57% Calm Calm -- 29.81 in1009.5 mb - 0.00 in0.0 mm 0.00 in0.0 mm
02:45 PM 93.6°F34.2°C 76.6°F24.8°C 58% Calm Calm -- 29.81 in1009.5 mb - 0.00 in0.0 mm 0.00 in0.0 mm
03:00 PM 93.8°F34.3°C 76.8°F24.9°C 58% 1.2 mph 1.9 kmh 1.2 mph1.9 kmh 29.81 in1009.5 mb - 0.00 in0.0 mm 0.00 in0.0 mm
03:15 PM 89.4°F31.9°C 72.7°F22.6°C 58% 1.2 mph 1.9 kmh 1.2 mph1.9 kmh 29.82 in1009.8 mb - 0.00 in0.0 mm 0.00 in0.0 mm
03:30 PM 87.3°F30.7°C 72.7°F22.6°C 62% Calm Calm 1.2 mph1.9 kmh 29.81 in1009.5 mb - 0.00 in0.0 mm 0.00 in0.0 mm
03:45 PM 86.8°F30.4°C 74.1°F23.4°C 66% Calm Calm -- 29.80 in1009.1 mb - 0.00 in0.0 mm 0.00 in0.0 mm
04:00 PM 87.6°F30.9°C 74.0°F23.3°C 64% Calm Calm -- 29.82 in1009.8 mb - 0.00 in0.0 mm 0.00 in0.0 mm
04:15 PM 88.6°F31.4°C 73.4°F23.0°C 61% Calm Calm 1.2 mph1.9 kmh 29.81 in1009.5 mb - 0.00 in0.0 mm 0.00 in0.0 mm
04:30 PM 89.0°F31.7°C 75.2°F24.0°C 64% Calm Calm -- 29.81 in1009.5 mb - 0.00 in0.0 mm 0.00 in0.0 mm
04:45 PM 89.3°F31.8°C 74.1°F23.4°C 61% Calm Calm -- 29.83 in1010.2 mb - 0.00 in0.0 mm 0.00 in0.0 mm
05:00 PM 89.2°F31.8°C 74.4°F23.6°C 62% 1.2 mph N1.9 kmh N 1.2 mph1.9 kmh 29.82 in1009.8 mb - 0.00 in0.0 mm 0.00 in0.0 mm
05:15 PM 87.4°F30.8°C 75.5°F24.2°C 68% Calm Calm -- 29.81 in1009.5 mb - 0.00 in0.0 mm 0.00 in0.0 mm
05:30 PM 87.3°F30.7°C 75.9°F24.4°C 69% 1.2 mph 1.9 kmh 1.2 mph1.9 kmh 29.80 in1009.1 mb - 0.00 in0.0 mm 0.00 in0.0 mm
05:45 PM 86.6°F30.3°C 76.5°F24.7°C 72% Calm Calm -- 29.81 in1009.5 mb - 0.00 in0.0 mm 0.00 in0.0 mm
06:00 PM 86.3°F30.2°C 77.1°F25.1°C 74% Calm Calm -- 29.81 in1009.5 mb - 0.00 in0.0 mm 0.00 in0.0 mm
06:15 PM 85.7°F29.8°C 77.3°F25.2°C 76% Calm Calm 1.2 mph1.9 kmh 29.82 in1009.8 mb - 0.00 in0.0 mm 0.00 in0.0 mm
06:30 PM 84.9°F29.4°C 76.1°F24.5°C 75% Calm Calm -- 29.84 in1010.5 mb - 0.00 in0.0 mm 0.00 in0.0 mm
06:45 PM 84.1°F28.9°C 75.7°F24.3°C 76% Calm Calm -- 29.84 in1010.5 mb - 0.00 in0.0 mm 0.00 in0.0 mm
07:00 PM 83.3°F28.5°C 74.6°F23.7°C 75% Calm Calm -- 29.84 in1010.5 mb - 0.00 in0.0 mm 0.00 in0.0 mm
07:15 PM 82.5°F28.1°C 74.2°F23.4°C 76% Calm Calm -- 29.84 in1010.5 mb - 0.00 in0.0 mm 0.00 in0.0 mm
07:30 PM 81.7°F27.6°C 74.2°F23.4°C 78% Calm Calm -- 29.83 in1010.2 mb - 0.00 in0.0 mm 0.00 in0.0 mm
07:45 PM 81.4°F27.4°C 74.6°F23.7°C 80% Calm Calm -- 29.83 in1010.2 mb - 0.00 in0.0 mm 0.00 in0.0 mm
08:00 PM 81.0°F27.2°C 74.2°F23.4°C 80% Calm Calm -- 29.83 in1010.2 mb - 0.00 in0.0 mm 0.00 in0.0 mm
08:15 PM 80.5°F26.9°C 74.1°F23.4°C 81% Calm Calm -- 29.84 in1010.5 mb - 0.00 in0.0 mm 0.00 in0.0 mm
08:30 PM 80.2°F26.8°C 74.2°F23.4°C 82% Calm Calm -- 29.85 in1010.8 mb - 0.00 in0.0 mm 0.00 in0.0 mm
08:45 PM 80.0°F26.7°C 74.0°F23.3°C 82% Calm Calm -- 29.84 in1010.5 mb - 0.00 in0.0 mm 0.00 in0.0 mm
09:00 PM 79.8°F26.6°C 74.2°F23.4°C 83% Calm Calm -- 29.85 in1010.8 mb - 0.00 in0.0 mm 0.00 in0.0 mm
09:15 PM 79.6°F26.4°C 74.0°F23.3°C 83% Calm Calm -- 29.85 in1010.8 mb - 0.00 in0.0 mm 0.00 in0.0 mm
09:30 PM 79.4°F26.3°C 74.1°F23.4°C 84% Calm Calm -- 29.85 in1010.8 mb - 0.00 in0.0 mm 0.00 in0.0 mm
09:45 PM 79.4°F26.3°C 74.5°F23.6°C 85% Calm Calm -- 29.85 in1010.8 mb - 0.00 in0.0 mm 0.00 in0.0 mm
10:00 PM 79.3°F26.3°C 74.4°F23.6°C 85% Calm Calm -- 29.86 in1011.2 mb - 0.00 in0.0 mm 0.00 in0.0 mm
10:15 PM 79.7°F26.5°C 75.1°F23.9°C 86% Calm Calm -- 29.85 in1010.8 mb - 0.00 in0.0 mm 0.00 in0.0 mm
10:30 PM 79.4°F26.3°C 74.1°F23.4°C 84% Calm Calm -- 29.85 in1010.8 mb - 0.00 in0.0 mm 0.00 in0.0 mm
10:45 PM 79.8°F26.6°C 73.4°F23.0°C 81% Calm Calm -- 29.84 in1010.5 mb - 0.00 in0.0 mm 0.00 in0.0 mm
11:00 PM 80.3°F26.8°C 74.7°F23.7°C 83% Calm Calm -- 29.86 in1011.2 mb - 0.00 in0.0 mm 0.00 in0.0 mm
11:15 PM 80.1°F26.7°C 74.4°F23.6°C 83% Calm Calm -- 29.88 in1011.9 mb - 0.00 in0.0 mm 0.00 in0.0 mm
11:30 PM 78.4°F25.8°C 75.6°F24.2°C 91% Calm Calm -- 29.92 in1013.2 mb - 0.31 in7.9 mm 0.31 in7.9 mm
11:45 PM 76.4°F24.7°C 74.5°F23.6°C 94% Calm Calm -- 29.89 in1012.2 mb - 0.45 in11.4 mm 0.45 in11.4 mm